sensor_id;sensor_type;location;lat;lon;timestamp;pressure;altitude;pressure_sealevel;temperature;humidity
66396;BME280;53207;51.378;-1.342;2023-05-08T00:01:59;100694.62;;;23.72;38.87
66396;BME280;53207;51.378;-1.342;2023-05-08T00:04:26;100692.71;;;23.47;38.90
66396;BME280;53207;51.378;-1.342;2023-05-08T00:06:53;100690.14;;;23.47;38.82
66396;BME280;53207;51.378;-1.342;2023-05-08T00:09:21;100693.81;;;23.68;38.78
66396;BME280;53207;51.378;-1.342;2023-05-08T00:11:48;100696.51;;;23.64;38.86
66396;BME280;53207;51.378;-1.342;2023-05-08T00:14:15;100697.00;;;23.47;38.76
66396;BME280;53207;51.378;-1.342;2023-05-08T00:16:42;100695.87;;;23.62;38.83
66396;BME280;53207;51.378;-1.342;2023-05-08T00:19:10;100698.59;;;23.41;38.79
66396;BME280;53207;51.378;-1.342;2023-05-08T00:21:37;100699.36;;;23.61;38.80
66396;BME280;53207;51.378;-1.342;2023-05-08T00:24:04;100695.83;;;23.35;38.84
66396;BME280;53207;51.378;-1.342;2023-05-08T00:26:31;100695.69;;;23.56;38.73
66396;BME280;53207;51.378;-1.342;2023-05-08T00:28:59;100695.51;;;23.59;38.69
66396;BME280;53207;51.378;-1.342;2023-05-08T00:31:26;100693.87;;;23.55;38.69
66396;BME280;53207;51.378;-1.342;2023-05-08T00:33:53;100689.96;;;23.34;38.62
66396;BME280;53207;51.378;-1.342;2023-05-08T00:36:20;100688.77;;;23.57;38.57
66396;BME280;53207;51.378;-1.342;2023-05-08T00:38:48;100688.58;;;23.54;38.57
66396;BME280;53207;51.378;-1.342;2023-05-08T00:41:15;100689.92;;;23.61;38.44
66396;BME280;53207;51.378;-1.342;2023-05-08T00:43:42;100687.13;;;23.58;38.48
66396;BME280;53207;51.378;-1.342;2023-05-08T00:46:10;100681.87;;;23.53;38.51
66396;BME280;53207;51.378;-1.342;2023-05-08T00:48:39;100677.57;;;23.12;38.35
66396;BME280;53207;51.378;-1.342;2023-05-08T00:51:07;100674.26;;;23.55;38.41
66396;BME280;53207;51.378;-1.342;2023-05-08T00:53:38;100672.78;;;23.48;38.56
66396;BME280;53207;51.378;-1.342;2023-05-08T00:56:10;100667.47;;;23.58;38.32
66396;BME280;53207;51.378;-1.342;2023-05-08T00:58:39;100664.16;;;23.56;38.34
66396;BME280;53207;51.378;-1.342;2023-05-08T01:01:06;100654.66;;;23.53;38.35
66396;BME280;53207;51.378;-1.342;2023-05-08T01:03:35;100653.51;;;23.51;38.37
66396;BME280;53207;51.378;-1.342;2023-05-08T01:06:02;100652.26;;;23.29;38.30
66396;BME280;53207;51.378;-1.342;2023-05-08T01:08:30;100648.66;;;23.51;38.32
66396;BME280;53207;51.378;-1.342;2023-05-08T01:11:08;100649.38;;;23.25;38.31
66396;BME280;53207;51.378;-1.342;2023-05-08T01:13:48;100648.93;;;23.76;38.18
66396;BME280;53207;51.378;-1.342;2023-05-08T01:16:18;100652.04;;;23.56;38.12
66396;BME280;53207;51.378;-1.342;2023-05-08T01:18:57;100653.44;;;23.50;38.21
66396;BME280;53207;51.378;-1.342;2023-05-08T01:21:37;100652.54;;;23.47;38.25
66396;BME280;53207;51.378;-1.342;2023-05-08T01:25:27;100651.80;;;23.43;38.25
66396;BME280;53207;51.378;-1.342;2023-05-08T01:28:14;100646.26;;;23.46;38.15
66396;BME280;53207;51.378;-1.342;2023-05-08T01:31:10;100644.87;;;23.34;38.32
66396;BME280;53207;51.378;-1.342;2023-05-08T01:33:45;100640.90;;;23.38;38.23
66396;BME280;53207;51.378;-1.342;2023-05-08T01:36:21;100641.19;;;23.42;38.13
66396;BME280;53207;51.378;-1.342;2023-05-08T01:38:55;100642.53;;;23.12;38.19
66396;BME280;53207;51.378;-1.342;2023-05-08T01:41:27;100643.05;;;23.43;38.04
66396;BME280;53207;51.378;-1.342;2023-05-08T01:44:08;100638.36;;;23.41;38.04
66396;BME280;53207;51.378;-1.342;2023-05-08T01:46:37;100635.32;;;23.36;38.06
66396;BME280;53207;51.378;-1.342;2023-05-08T01:49:07;100635.50;;;23.35;38.05
66396;BME280;53207;51.378;-1.342;2023-05-08T01:51:39;100632.48;;;23.40;37.94
66396;BME280;53207;51.378;-1.342;2023-05-08T01:54:10;100634.30;;;23.31;38.05
66396;BME280;53207;51.378;-1.342;2023-05-08T01:56:39;100637.78;;;23.16;37.92
66396;BME280;53207;51.378;-1.342;2023-05-08T01:59:09;100642.94;;;23.31;38.01
66396;BME280;53207;51.378;-1.342;2023-05-08T02:01:39;100644.62;;;22.83;37.96
66396;BME280;53207;51.378;-1.342;2023-05-08T02:04:08;100644.13;;;23.34;37.86
66396;BME280;53207;51.378;-1.342;2023-05-08T02:06:37;100646.15;;;23.30;37.89
66396;BME280;53207;51.378;-1.342;2023-05-08T02:09:06;100646.41;;;23.30;37.85
66396;BME280;53207;51.378;-1.342;2023-05-08T02:11:35;100645.17;;;23.29;37.84
66396;BME280;53207;51.378;-1.342;2023-05-08T02:14:05;100648.01;;;23.23;37.89
66396;BME280;53207;51.378;-1.342;2023-05-08T02:16:33;100647.63;;;23.22;37.89
66396;BME280;53207;51.378;-1.342;2023-05-08T02:19:02;100645.35;;;23.13;37.98
66396;BME280;53207;51.378;-1.342;2023-05-08T02:21:31;100642.92;;;23.24;37.82
66396;BME280;53207;51.378;-1.342;2023-05-08T02:23:59;100640.84;;;23.19;37.85
66396;BME280;53207;51.378;-1.342;2023-05-08T02:26:27;100638.81;;;23.19;37.84
66396;BME280;53207;51.378;-1.342;2023-05-08T02:28:55;100638.40;;;23.15;37.86
66396;BME280;53207;51.378;-1.342;2023-05-08T02:31:23;100637.74;;;23.14;37.88
66396;BME280;53207;51.378;-1.342;2023-05-08T02:33:51;100635.86;;;23.15;37.82
66396;BME280;53207;51.378;-1.342;2023-05-08T02:36:19;100637.37;;;23.10;37.86
66396;BME280;53207;51.378;-1.342;2023-05-08T02:38:50;100639.21;;;23.16;37.75
66396;BME280;53207;51.378;-1.342;2023-05-08T02:41:19;100637.43;;;23.12;37.77
66396;BME280;53207;51.378;-1.342;2023-05-08T02:43:47;100639.08;;;23.14;37.74
66396;BME280;53207;51.378;-1.342;2023-05-08T02:46:17;100638.26;;;23.33;37.76
66396;BME280;53207;51.378;-1.342;2023-05-08T02:48:54;100637.13;;;23.32;37.73
66396;BME280;53207;51.378;-1.342;2023-05-08T02:51:25;100630.67;;;23.04;37.77
66396;BME280;53207;51.378;-1.342;2023-05-08T02:54:00;100629.58;;;22.84;37.73
66396;BME280;53207;51.378;-1.342;2023-05-08T02:56:36;100625.02;;;23.03;37.73
66396;BME280;53207;51.378;-1.342;2023-05-08T02:59:13;100625.38;;;23.27;37.69
66396;BME280;53207;51.378;-1.342;2023-05-08T03:01:48;100623.28;;;23.03;37.70
66396;BME280;53207;51.378;-1.342;2023-05-08T03:04:23;100621.68;;;23.06;37.64
66396;BME280;53207;51.378;-1.342;2023-05-08T03:06:55;100619.44;;;23.03;37.65
66396;BME280;53207;51.378;-1.342;2023-05-08T03:09:27;100621.30;;;22.94;37.77
66396;BME280;53207;51.378;-1.342;2023-05-08T03:12:00;100623.73;;;23.23;37.65
66396;BME280;53207;51.378;-1.342;2023-05-08T03:14:31;100623.80;;;22.96;37.69
66396;BME280;53207;51.378;-1.342;2023-05-08T03:17:06;100623.36;;;22.94;37.69
66396;BME280;53207;51.378;-1.342;2023-05-08T03:19:36;100621.98;;;22.90;37.71
66396;BME280;53207;51.378;-1.342;2023-05-08T03:22:06;100617.23;;;22.92;37.66
66396;BME280;53207;51.378;-1.342;2023-05-08T03:24:35;100615.43;;;22.89;37.68
66396;BME280;53207;51.378;-1.342;2023-05-08T03:27:05;100614.74;;;22.91;37.63
66396;BME280;53207;51.378;-1.342;2023-05-08T03:29:33;100616.97;;;22.85;37.70
66396;BME280;53207;51.378;-1.342;2023-05-08T03:32:02;100619.85;;;22.82;37.74
66396;BME280;53207;51.378;-1.342;2023-05-08T03:34:30;100618.14;;;22.84;37.68
66396;BME280;53207;51.378;-1.342;2023-05-08T03:36:59;100618.55;;;23.03;37.72
66396;BME280;53207;51.378;-1.342;2023-05-08T03:39:26;100617.69;;;23.02;37.69
66396;BME280;53207;51.378;-1.342;2023-05-08T03:41:54;100613.73;;;22.70;37.79
66396;BME280;53207;51.378;-1.342;2023-05-08T03:44:23;100613.41;;;22.74;37.71
66396;BME280;53207;51.378;-1.342;2023-05-08T03:46:55;100610.67;;;22.75;37.67
66396;BME280;53207;51.378;-1.342;2023-05-08T03:49:24;100611.65;;;22.91;37.74
66396;BME280;53207;51.378;-1.342;2023-05-08T03:51:52;100611.27;;;22.70;37.70
66396;BME280;53207;51.378;-1.342;2023-05-08T03:54:19;100610.71;;;22.90;37.71
66396;BME280;53207;51.378;-1.342;2023-05-08T03:56:47;100610.94;;;22.85;37.75
66396;BME280;53207;51.378;-1.342;2023-05-08T03:59:22;100607.30;;;22.89;37.68
66396;BME280;53207;51.378;-1.342;2023-05-08T04:01:54;100604.85;;;22.62;37.71
66396;BME280;53207;51.378;-1.342;2023-05-08T04:04:29;100602.57;;;22.88;37.65
66396;BME280;53207;51.378;-1.342;2023-05-08T04:07:07;100602.27;;;22.70;37.57
66396;BME280;53207;51.378;-1.342;2023-05-08T04:09:41;100600.53;;;22.81;37.66
66396;BME280;53207;51.378;-1.342;2023-05-08T04:12:14;100602.71;;;22.80;37.66
66396;BME280;53207;51.378;-1.342;2023-05-08T04:14:49;100603.93;;;22.80;37.64
66396;BME280;53207;51.378;-1.342;2023-05-08T04:17:26;100601.18;;;22.78;37.65
66396;BME280;53207;51.378;-1.342;2023-05-08T04:20:01;100595.81;;;22.81;37.59
66396;BME280;53207;51.378;-1.342;2023-05-08T04:22:30;100597.28;;;22.57;37.57
66396;BME280;53207;51.378;-1.342;2023-05-08T04:25:01;100598.45;;;22.53;37.62
66396;BME280;53207;51.378;-1.342;2023-05-08T04:27:30;100595.98;;;22.55;37.57
66396;BME280;53207;51.378;-1.342;2023-05-08T04:29:58;100600.84;;;22.74;37.59
66396;BME280;53207;51.378;-1.342;2023-05-08T04:32:26;100601.32;;;22.51;37.58
66396;BME280;53207;51.378;-1.342;2023-05-08T04:34:54;100603.05;;;22.93;37.64
66396;BME280;53207;51.378;-1.342;2023-05-08T04:37:24;100601.67;;;22.40;37.68
66396;BME280;53207;51.378;-1.342;2023-05-08T04:39:51;100598.39;;;22.66;37.60
66396;BME280;53207;51.378;-1.342;2023-05-08T04:42:19;100595.26;;;22.63;37.62
66396;BME280;53207;51.378;-1.342;2023-05-08T04:44:46;100598.22;;;22.67;37.55
66396;BME280;53207;51.378;-1.342;2023-05-08T04:47:13;100600.41;;;22.37;37.62
66396;BME280;53207;51.378;-1.342;2023-05-08T04:49:40;100604.52;;;22.59;37.61
66396;BME280;53207;51.378;-1.342;2023-05-08T04:52:08;100606.89;;;22.73;37.37
66396;BME280;53207;51.378;-1.342;2023-05-08T04:54:35;100607.07;;;22.66;37.40
66396;BME280;53207;51.378;-1.342;2023-05-08T04:57:02;100609.10;;;22.68;37.37
66396;BME280;53207;51.378;-1.342;2023-05-08T04:59:29;100609.08;;;22.32;37.51
66396;BME280;53207;51.378;-1.342;2023-05-08T05:01:57;100609.78;;;22.31;37.52
66396;BME280;53207;51.378;-1.342;2023-05-08T05:04:25;100608.31;;;22.56;37.43
66396;BME280;53207;51.378;-1.342;2023-05-08T05:06:52;100610.61;;;22.52;37.47
66396;BME280;53207;51.378;-1.342;2023-05-08T05:09:19;100615.39;;;22.58;37.35
66396;BME280;53207;51.378;-1.342;2023-05-08T05:11:47;100617.80;;;22.32;37.41
66396;BME280;53207;51.378;-1.342;2023-05-08T05:14:14;100621.20;;;22.34;37.35
66396;BME280;53207;51.378;-1.342;2023-05-08T05:16:41;100622.52;;;22.55;37.38
66396;BME280;53207;51.378;-1.342;2023-05-08T05:19:08;100623.22;;;22.79;37.36
66396;BME280;53207;51.378;-1.342;2023-05-08T05:21:36;100623.83;;;22.53;37.35
66396;BME280;53207;51.378;-1.342;2023-05-08T05:24:04;100619.93;;;22.56;37.25
66396;BME280;53207;51.378;-1.342;2023-05-08T05:26:31;100621.84;;;22.39;37.22
66396;BME280;53207;51.378;-1.342;2023-05-08T05:28:58;100625.20;;;22.41;37.21
66396;BME280;53207;51.378;-1.342;2023-05-08T05:31:27;100625.30;;;22.52;37.04
66396;BME280;53207;51.378;-1.342;2023-05-08T05:33:54;100628.90;;;22.88;36.90
66396;BME280;53207;51.378;-1.342;2023-05-08T05:36:21;100627.99;;;22.97;36.84
66396;BME280;53207;51.378;-1.342;2023-05-08T05:38:48;100630.67;;;23.29;36.83
66396;BME280;53207;51.378;-1.342;2023-05-08T05:41:16;100627.34;;;23.09;36.73
66396;BME280;53207;51.378;-1.342;2023-05-08T05:43:43;100629.07;;;22.89;36.65
66396;BME280;53207;51.378;-1.342;2023-05-08T05:46:10;100629.60;;;22.94;36.60
66396;BME280;53207;51.378;-1.342;2023-05-08T05:48:37;100632.98;;;23.17;36.55
66396;BME280;53207;51.378;-1.342;2023-05-08T05:51:05;100628.03;;;23.23;36.45
66396;BME280;53207;51.378;-1.342;2023-05-08T05:53:32;100626.98;;;23.04;36.44
66396;BME280;53207;51.378;-1.342;2023-05-08T05:55:59;100629.00;;;23.03;36.43
66396;BME280;53207;51.378;-1.342;2023-05-08T05:58:27;100629.60;;;23.03;36.40
66396;BME280;53207;51.378;-1.342;2023-05-08T06:00:54;100629.35;;;23.09;36.41
66396;BME280;53207;51.378;-1.342;2023-05-08T06:03:21;100626.91;;;23.07;36.42
66396;BME280;53207;51.378;-1.342;2023-05-08T06:05:48;100625.47;;;23.08;36.41
66396;BME280;53207;51.378;-1.342;2023-05-08T06:08:16;100624.88;;;23.27;36.43
66396;BME280;53207;51.378;-1.342;2023-05-08T06:10:43;100626.28;;;23.05;36.48
66396;BME280;53207;51.378;-1.342;2023-05-08T06:13:10;100624.83;;;23.04;36.55
66396;BME280;53207;51.378;-1.342;2023-05-08T06:15:38;100623.01;;;23.00;36.61
66396;BME280;53207;51.378;-1.342;2023-05-08T06:18:05;100620.60;;;23.23;36.67
66396;BME280;53207;51.378;-1.342;2023-05-08T06:20:32;100618.83;;;23.15;36.76
66396;BME280;53207;51.378;-1.342;2023-05-08T06:22:59;100619.65;;;23.17;36.76
66396;BME280;53207;51.378;-1.342;2023-05-08T06:25:27;100618.24;;;22.93;36.78
66396;BME280;53207;51.378;-1.342;2023-05-08T06:27:54;100620.98;;;23.20;36.78
66396;BME280;53207;51.378;-1.342;2023-05-08T06:30:21;100622.01;;;22.93;36.82
66396;BME280;53207;51.378;-1.342;2023-05-08T06:32:48;100620.90;;;22.93;36.77
66396;BME280;53207;51.378;-1.342;2023-05-08T06:35:16;100623.09;;;23.13;36.82
66396;BME280;53207;51.378;-1.342;2023-05-08T06:37:43;100626.30;;;22.89;36.97
66396;BME280;53207;51.378;-1.342;2023-05-08T06:40:11;100623.03;;;22.94;36.96
66396;BME280;53207;51.378;-1.342;2023-05-08T06:42:38;100624.85;;;22.98;36.89
66396;BME280;53207;51.378;-1.342;2023-05-08T06:45:07;100620.25;;;22.88;37.25
66396;BME280;53207;51.378;-1.342;2023-05-08T06:47:34;100621.10;;;22.91;37.12
66396;BME280;53207;51.378;-1.342;2023-05-08T06:50:01;100620.17;;;22.94;37.11
66396;BME280;53207;51.378;-1.342;2023-05-08T06:52:28;100619.17;;;22.93;37.16
66396;BME280;53207;51.378;-1.342;2023-05-08T06:54:55;100616.25;;;22.91;37.18
66396;BME280;53207;51.378;-1.342;2023-05-08T06:57:23;100611.07;;;22.93;37.18
66396;BME280;53207;51.378;-1.342;2023-05-08T06:59:50;100610.30;;;22.91;37.31
66396;BME280;53207;51.378;-1.342;2023-05-08T07:02:17;100614.74;;;22.85;37.29
66396;BME280;53207;51.378;-1.342;2023-05-08T07:04:45;100612.48;;;22.87;37.54
66396;BME280;53207;51.378;-1.342;2023-05-08T07:07:12;100611.19;;;22.85;37.38
66396;BME280;53207;51.378;-1.342;2023-05-08T07:09:39;100613.02;;;22.84;37.44
66396;BME280;53207;51.378;-1.342;2023-05-08T07:12:06;100611.93;;;22.80;37.51
66396;BME280;53207;51.378;-1.342;2023-05-08T07:14:34;100612.19;;;22.79;37.51
66396;BME280;53207;51.378;-1.342;2023-05-08T07:17:02;100610.04;;;22.73;37.60
66396;BME280;53207;51.378;-1.342;2023-05-08T07:19:30;100609.04;;;22.90;37.76
66396;BME280;53207;51.378;-1.342;2023-05-08T07:21:57;100609.29;;;22.63;37.74
66396;BME280;53207;51.378;-1.342;2023-05-08T07:24:24;100612.46;;;23.09;37.79
66396;BME280;53207;51.378;-1.342;2023-05-08T07:26:51;100613.80;;;22.61;37.69
66396;BME280;53207;51.378;-1.342;2023-05-08T07:29:19;100614.57;;;22.62;37.78
66396;BME280;53207;51.378;-1.342;2023-05-08T07:31:46;100613.67;;;22.65;37.57
66396;BME280;53207;51.378;-1.342;2023-05-08T07:34:14;100611.67;;;22.62;37.98
66396;BME280;53207;51.378;-1.342;2023-05-08T07:36:41;100610.06;;;22.81;37.63
66396;BME280;53207;51.378;-1.342;2023-05-08T07:39:08;100608.10;;;22.68;37.79
66396;BME280;53207;51.378;-1.342;2023-05-08T07:41:35;100609.61;;;22.44;37.75
66396;BME280;53207;51.378;-1.342;2023-05-08T07:44:02;100611.11;;;22.58;37.89
66396;BME280;53207;51.378;-1.342;2023-05-08T07:46:30;100609.33;;;22.54;37.87
66396;BME280;53207;51.378;-1.342;2023-05-08T07:48:57;100607.40;;;22.61;37.80
66396;BME280;53207;51.378;-1.342;2023-05-08T07:51:24;100607.34;;;22.33;37.86
66396;BME280;53207;51.378;-1.342;2023-05-08T07:53:51;100606.61;;;22.48;37.93
66396;BME280;53207;51.378;-1.342;2023-05-08T07:56:19;100611.76;;;22.49;37.96
66396;BME280;53207;51.378;-1.342;2023-05-08T07:58:46;100612.21;;;22.33;38.10
66396;BME280;53207;51.378;-1.342;2023-05-08T08:01:13;100613.92;;;22.52;37.84
66396;BME280;53207;51.378;-1.342;2023-05-08T08:03:40;100613.27;;;22.38;38.04
66396;BME280;53207;51.378;-1.342;2023-05-08T08:06:08;100614.15;;;22.75;37.92
66396;BME280;53207;51.378;-1.342;2023-05-08T08:08:35;100611.64;;;22.34;38.13
66396;BME280;53207;51.378;-1.342;2023-05-08T08:11:02;100608.98;;;22.17;38.09
66396;BME280;53207;51.378;-1.342;2023-05-08T08:13:30;100608.14;;;22.34;38.22
66396;BME280;53207;51.378;-1.342;2023-05-08T08:15:57;100607.36;;;22.40;38.05
66396;BME280;53207;51.378;-1.342;2023-05-08T08:18:24;100606.13;;;22.63;38.16
66396;BME280;53207;51.378;-1.342;2023-05-08T08:20:51;100605.19;;;22.00;38.35
66396;BME280;53207;51.378;-1.342;2023-05-08T08:23:19;100598.57;;;22.04;38.31
66396;BME280;53207;51.378;-1.342;2023-05-08T08:25:46;100595.94;;;22.32;38.13
66396;BME280;53207;51.378;-1.342;2023-05-08T08:28:13;100592.53;;;22.56;38.23
66396;BME280;53207;51.378;-1.342;2023-05-08T08:30:40;100599.18;;;22.21;38.29
66396;BME280;53207;51.378;-1.342;2023-05-08T08:33:08;100601.47;;;22.21;38.31
66396;BME280;53207;51.378;-1.342;2023-05-08T08:35:35;100600.78;;;22.19;38.30
66396;BME280;53207;51.378;-1.342;2023-05-08T08:38:02;100600.86;;;22.22;38.25
66396;BME280;53207;51.378;-1.342;2023-05-08T08:40:30;100602.59;;;22.22;38.25
66396;BME280;53207;51.378;-1.342;2023-05-08T08:42:57;100601.74;;;22.42;38.33
66396;BME280;53207;51.378;-1.342;2023-05-08T08:45:24;100601.81;;;22.44;38.24
66396;BME280;53207;51.378;-1.342;2023-05-08T08:47:52;100601.85;;;22.10;38.32
66396;BME280;53207;51.378;-1.342;2023-05-08T08:50:19;100595.99;;;22.35;38.33
66396;BME280;53207;51.378;-1.342;2023-05-08T08:52:55;100594.71;;;22.44;38.15
66396;BME280;53207;51.378;-1.342;2023-05-08T08:55:27;100595.21;;;22.41;38.18
66396;BME280;53207;51.378;-1.342;2023-05-08T08:58:03;100592.73;;;22.09;38.25
66396;BME280;53207;51.378;-1.342;2023-05-08T09:00:34;100588.75;;;21.87;38.24
66396;BME280;53207;51.378;-1.342;2023-05-08T09:03:04;100590.97;;;22.42;38.10
66396;BME280;53207;51.378;-1.342;2023-05-08T09:05:31;100591.88;;;22.13;38.10
66396;BME280;53207;51.378;-1.342;2023-05-08T09:08:00;100594.08;;;22.30;38.24
66396;BME280;53207;51.378;-1.342;2023-05-08T09:10:27;100596.47;;;22.35;38.15
66396;BME280;53207;51.378;-1.342;2023-05-08T09:12:55;100598.23;;;22.02;38.21
66396;BME280;53207;51.378;-1.342;2023-05-08T09:15:22;100592.43;;;22.00;38.20
66396;BME280;53207;51.378;-1.342;2023-05-08T09:17:49;100592.15;;;22.04;38.15
66396;BME280;53207;51.378;-1.342;2023-05-08T09:20:16;100591.52;;;22.26;38.20
66396;BME280;53207;51.378;-1.342;2023-05-08T09:22:45;100587.61;;;22.31;38.09
66396;BME280;53207;51.378;-1.342;2023-05-08T09:25:12;100585.33;;;22.08;38.04
66396;BME280;53207;51.378;-1.342;2023-05-08T09:27:39;100576.44;;;22.21;38.18
66396;BME280;53207;51.378;-1.342;2023-05-08T09:30:08;100574.72;;;21.96;38.17
66396;BME280;53207;51.378;-1.342;2023-05-08T09:32:37;100575.06;;;22.26;38.09
66396;BME280;53207;51.378;-1.342;2023-05-08T09:35:06;100570.13;;;22.00;38.05
66396;BME280;53207;51.378;-1.342;2023-05-08T09:37:37;100565.50;;;22.24;38.12
66396;BME280;53207;51.378;-1.342;2023-05-08T09:40:13;100555.67;;;21.95;38.14
66396;BME280;53207;51.378;-1.342;2023-05-08T09:42:40;100551.97;;;22.34;37.99
66396;BME280;53207;51.378;-1.342;2023-05-08T09:45:08;100549.54;;;22.15;37.91
66396;BME280;53207;51.378;-1.342;2023-05-08T09:47:36;100548.05;;;22.12;37.93
66396;BME280;53207;51.378;-1.342;2023-05-08T09:50:05;100549.10;;;22.09;37.92
66396;BME280;53207;51.378;-1.342;2023-05-08T09:52:34;100543.32;;;22.30;38.00
66396;BME280;53207;51.378;-1.342;2023-05-08T09:55:03;100544.91;;;22.05;37.93
66396;BME280;53207;51.378;-1.342;2023-05-08T09:57:33;100549.43;;;22.16;37.75
66396;BME280;53207;51.378;-1.342;2023-05-08T10:00:01;100553.85;;;22.20;37.72
66396;BME280;53207;51.378;-1.342;2023-05-08T10:02:29;100541.65;;;22.07;37.85
66396;BME280;53207;51.378;-1.342;2023-05-08T10:04:56;100536.12;;;21.98;37.99
66396;BME280;53207;51.378;-1.342;2023-05-08T10:07:28;100531.29;;;22.09;37.84
66396;BME280;53207;51.378;-1.342;2023-05-08T10:09:59;100537.99;;;21.84;37.85
66396;BME280;53207;51.378;-1.342;2023-05-08T10:12:27;100541.49;;;22.00;37.91
66396;BME280;53207;51.378;-1.342;2023-05-08T10:14:55;100545.20;;;22.00;37.88
66396;BME280;53207;51.378;-1.342;2023-05-08T10:17:26;100542.25;;;22.03;37.82
66396;BME280;53207;51.378;-1.342;2023-05-08T10:19:59;100547.06;;;22.30;37.82
66396;BME280;53207;51.378;-1.342;2023-05-08T10:22:31;100551.32;;;22.01;37.78
66396;BME280;53207;51.378;-1.342;2023-05-08T10:25:02;100549.77;;;21.98;37.81
66396;BME280;53207;51.378;-1.342;2023-05-08T10:27:38;100550.57;;;22.22;37.84
66396;BME280;53207;51.378;-1.342;2023-05-08T10:30:12;100547.38;;;22.01;37.76
66396;BME280;53207;51.378;-1.342;2023-05-08T10:32:42;100555.13;;;21.66;37.87
66396;BME280;53207;51.378;-1.342;2023-05-08T10:35:11;100557.47;;;22.23;37.79
66396;BME280;53207;51.378;-1.342;2023-05-08T10:37:39;100556.97;;;21.77;37.72
66396;BME280;53207;51.378;-1.342;2023-05-08T10:40:07;100547.88;;;21.87;37.84
66396;BME280;53207;51.378;-1.342;2023-05-08T10:42:35;100546.56;;;22.31;37.60
66396;BME280;53207;51.378;-1.342;2023-05-08T10:45:04;100554.86;;;21.90;37.75
66396;BME280;53207;51.378;-1.342;2023-05-08T10:47:44;100552.86;;;22.05;37.92
66396;BME280;53207;51.378;-1.342;2023-05-08T10:50:23;100553.53;;;21.89;37.83
66396;BME280;53207;51.378;-1.342;2023-05-08T10:53:00;100550.88;;;21.95;37.83
66396;BME280;53207;51.378;-1.342;2023-05-08T10:55:29;100546.85;;;21.86;37.92
66396;BME280;53207;51.378;-1.342;2023-05-08T10:58:02;100541.56;;;21.77;38.01
66396;BME280;53207;51.378;-1.342;2023-05-08T11:00:31;100539.28;;;22.25;37.74
66396;BME280;53207;51.378;-1.342;2023-05-08T11:03:04;100540.18;;;22.22;37.81
66396;BME280;53207;51.378;-1.342;2023-05-08T11:05:44;100535.37;;;21.94;37.79
66396;BME280;53207;51.378;-1.342;2023-05-08T11:08:14;100537.14;;;21.85;37.87
66396;BME280;53207;51.378;-1.342;2023-05-08T11:10:42;100542.13;;;22.38;37.45
66396;BME280;53207;51.378;-1.342;2023-05-08T11:13:11;100551.69;;;21.97;37.63
66396;BME280;53207;51.378;-1.342;2023-05-08T11:15:39;100550.72;;;21.81;37.83
66396;BME280;53207;51.378;-1.342;2023-05-08T11:18:08;100554.01;;;21.92;37.59
66396;BME280;53207;51.378;-1.342;2023-05-08T11:20:38;100561.81;;;21.89;37.62
66396;BME280;53207;51.378;-1.342;2023-05-08T11:23:22;100558.19;;;21.87;37.63
66396;BME280;53207;51.378;-1.342;2023-05-08T11:25:59;100542.28;;;21.97;37.50
66396;BME280;53207;51.378;-1.342;2023-05-08T11:28:26;100537.47;;;22.25;37.50
66396;BME280;53207;51.378;-1.342;2023-05-08T11:30:54;100546.27;;;22.23;37.50
66396;BME280;53207;51.378;-1.342;2023-05-08T11:33:25;100541.79;;;22.06;37.41
66396;BME280;53207;51.378;-1.342;2023-05-08T11:35:56;100532.28;;;22.21;37.54
66396;BME280;53207;51.378;-1.342;2023-05-08T11:38:27;100535.58;;;22.32;37.37
66396;BME280;53207;51.378;-1.342;2023-05-08T11:40:57;100534.01;;;21.73;37.50
66396;BME280;53207;51.378;-1.342;2023-05-08T11:43:30;100523.92;;;21.93;37.51
66396;BME280;53207;51.378;-1.342;2023-05-08T11:46:02;100529.71;;;22.26;37.42
66396;BME280;53207;51.378;-1.342;2023-05-08T11:48:30;100529.71;;;22.14;37.57
66396;BME280;53207;51.378;-1.342;2023-05-08T11:50:58;100539.28;;;21.94;37.43
66396;BME280;53207;51.378;-1.342;2023-05-08T11:53:26;100539.95;;;21.93;37.46
66396;BME280;53207;51.378;-1.342;2023-05-08T11:55:53;100528.75;;;22.18;37.47
66396;BME280;53207;51.378;-1.342;2023-05-08T11:58:21;100522.10;;;21.95;37.48
66396;BME280;53207;51.378;-1.342;2023-05-08T12:00:48;100525.08;;;22.21;37.51
66396;BME280;53207;51.378;-1.342;2023-05-08T12:03:17;100525.33;;;22.00;37.42
66396;BME280;53207;51.378;-1.342;2023-05-08T12:05:45;100512.56;;;21.98;37.44
66396;BME280;53207;51.378;-1.342;2023-05-08T12:08:14;100486.59;;;22.28;37.41
66396;BME280;53207;51.378;-1.342;2023-05-08T12:10:49;100490.11;;;22.03;37.41
66396;BME280;53207;51.378;-1.342;2023-05-08T12:13:16;100500.41;;;22.29;37.45
66396;BME280;53207;51.378;-1.342;2023-05-08T12:15:44;100509.51;;;22.32;37.40
66396;BME280;53207;51.378;-1.342;2023-05-08T12:18:12;100520.63;;;22.07;37.36
66396;BME280;53207;51.378;-1.342;2023-05-08T12:20:39;100515.50;;;22.00;37.46
66396;BME280;53207;51.378;-1.342;2023-05-08T12:23:06;100509.70;;;22.14;37.28
66396;BME280;53207;51.378;-1.342;2023-05-08T12:25:36;100504.29;;;22.25;37.45
66396;BME280;53207;51.378;-1.342;2023-05-08T12:28:03;100503.55;;;21.98;37.45
66396;BME280;53207;51.378;-1.342;2023-05-08T12:30:32;100506.20;;;22.22;37.46
66396;BME280;53207;51.378;-1.342;2023-05-08T12:33:01;100509.58;;;22.06;37.31
66396;BME280;53207;51.378;-1.342;2023-05-08T12:35:28;100516.13;;;22.12;37.62
66396;BME280;53207;51.378;-1.342;2023-05-08T12:38:00;100516.62;;;22.20;37.52
66396;BME280;53207;51.378;-1.342;2023-05-08T12:40:28;100508.78;;;22.25;37.44
66396;BME280;53207;51.378;-1.342;2023-05-08T12:42:56;100511.30;;;21.91;37.54
66396;BME280;53207;51.378;-1.342;2023-05-08T12:45:28;100513.90;;;22.21;37.47
66396;BME280;53207;51.378;-1.342;2023-05-08T12:47:59;100506.62;;;22.17;37.56
66396;BME280;53207;51.378;-1.342;2023-05-08T12:50:27;100494.58;;;21.80;37.71
66396;BME280;53207;51.378;-1.342;2023-05-08T12:52:54;100489.16;;;21.94;37.56